sensor_id;sensor_type;location;lat;lon;timestamp;temperature;humidity
37488;DHT22;23342;52.620;13.300;2022-12-18T15:47:04;-2.50;99.90
37488;DHT22;23342;52.620;13.300;2022-12-18T15:49:32;-2.50;99.90
37488;DHT22;23342;52.620;13.300;2022-12-18T15:51:59;-2.40;99.90
37488;DHT22;23342;52.620;13.300;2022-12-18T15:54:26;-2.40;99.90
37488;DHT22;23342;52.620;13.300;2022-12-18T16:00:24;-2.40;99.90
37488;DHT22;23342;52.620;13.300;2022-12-18T16:02:49;-2.30;99.90
37488;DHT22;23342;52.620;13.300;2022-12-18T16:05:16;-2.30;99.90
37488;DHT22;23342;52.620;13.300;2022-12-18T16:07:42;-2.30;99.90
37488;DHT22;23342;52.620;13.300;2022-12-18T16:10:08;-2.30;99.90
37488;DHT22;23342;52.620;13.300;2022-12-18T16:12:34;-2.30;99.90
37488;DHT22;23342;52.620;13.300;2022-12-18T16:15:00;-2.30;99.90
37488;DHT22;23342;52.620;13.300;2022-12-18T16:17:26;-2.20;99.90
37488;DHT22;23342;52.620;13.300;2022-12-18T16:19:51;-2.20;99.90
37488;DHT22;23342;52.620;13.300;2022-12-18T16:22:28;-2.20;99.90
37488;DHT22;23342;52.620;13.300;2022-12-18T16:24:55;-2.20;99.90
37488;DHT22;23342;52.620;13.300;2022-12-18T16:27:22;-2.20;99.90
37488;DHT22;23342;52.620;13.300;2022-12-18T16:29:48;-2.20;99.90
37488;DHT22;23342;52.620;13.300;2022-12-18T16:32:17;-2.20;99.90
37488;DHT22;23342;52.620;13.300;2022-12-18T16:34:43;-2.10;99.90
37488;DHT22;23342;52.620;13.300;2022-12-18T16:37:10;-2.10;99.90
37488;DHT22;23342;52.620;13.300;2022-12-18T16:39:37;-2.10;99.90
37488;DHT22;23342;52.620;13.300;2022-12-18T16:42:11;-2.20;99.90
37488;DHT22;23342;52.620;13.300;2022-12-18T16:44:39;-2.20;99.90
37488;DHT22;23342;52.620;13.300;2022-12-18T16:47:05;-2.20;99.90
37488;DHT22;23342;52.620;13.300;2022-12-18T16:49:31;-2.20;99.90
37488;DHT22;23342;52.620;13.300;2022-12-18T16:51:56;-2.20;99.90
37488;DHT22;23342;52.620;13.300;2022-12-18T16:54:22;-2.20;99.90
37488;DHT22;23342;52.620;13.300;2022-12-18T16:56:50;-2.20;99.90
37488;DHT22;23342;52.620;13.300;2022-12-18T16:59:15;-2.20;99.90
37488;DHT22;23342;52.620;13.300;2022-12-18T17:01:41;-2.20;99.90
37488;DHT22;23342;52.620;13.300;2022-12-18T17:04:07;-2.20;99.90
37488;DHT22;23342;52.620;13.300;2022-12-18T17:06:35;-2.10;99.90
37488;DHT22;23342;52.620;13.300;2022-12-18T17:09:05;-2.10;99.90
37488;DHT22;23342;52.620;13.300;2022-12-18T17:11:33;-2.10;99.90
37488;DHT22;23342;52.620;13.300;2022-12-18T17:13:59;-2.10;99.90
37488;DHT22;23342;52.620;13.300;2022-12-18T17:16:25;-2.10;99.90
37488;DHT22;23342;52.620;13.300;2022-12-18T17:18:52;-2.20;99.90
37488;DHT22;23342;52.620;13.300;2022-12-18T17:21:18;-2.20;99.90
37488;DHT22;23342;52.620;13.300;2022-12-18T17:23:44;-2.20;99.90
37488;DHT22;23342;52.620;13.300;2022-12-18T17:26:11;-2.20;99.90
37488;DHT22;23342;52.620;13.300;2022-12-18T17:28:38;-2.20;99.90
37488;DHT22;23342;52.620;13.300;2022-12-18T17:31:12;-2.30;99.90
37488;DHT22;23342;52.620;13.300;2022-12-18T17:33:38;-2.30;99.90
37488;DHT22;23342;52.620;13.300;2022-12-18T17:36:04;-2.30;99.90
37488;DHT22;23342;52.620;13.300;2022-12-18T17:38:30;-2.40;99.90
37488;DHT22;23342;52.620;13.300;2022-12-18T17:41:00;-2.30;99.90
37488;DHT22;23342;52.620;13.300;2022-12-18T17:43:26;-2.30;99.90
37488;DHT22;23342;52.620;13.300;2022-12-18T17:45:52;-2.30;99.90
37488;DHT22;23342;52.620;13.300;2022-12-18T17:48:17;-2.30;99.90
37488;DHT22;23342;52.620;13.300;2022-12-18T17:50:43;-2.30;99.90
37488;DHT22;23342;52.620;13.300;2022-12-18T17:53:10;-2.30;99.90
37488;DHT22;23342;52.620;13.300;2022-12-18T17:55:35;-2.30;99.90
37488;DHT22;23342;52.620;13.300;2022-12-18T17:58:01;-2.30;99.90
37488;DHT22;23342;52.620;13.300;2022-12-18T18:00:26;-2.40;99.90
37488;DHT22;23342;52.620;13.300;2022-12-18T18:02:52;-2.40;99.90
37488;DHT22;23342;52.620;13.300;2022-12-18T18:05:17;-2.40;99.90
37488;DHT22;23342;52.620;13.300;2022-12-18T18:07:43;-2.40;99.90
37488;DHT22;23342;52.620;13.300;2022-12-18T18:10:08;-2.40;99.90
37488;DHT22;23342;52.620;13.300;2022-12-18T18:12:35;-2.40;99.90
37488;DHT22;23342;52.620;13.300;2022-12-18T18:15:20;-2.40;99.90
37488;DHT22;23342;52.620;13.300;2022-12-18T18:17:46;-2.40;99.90
37488;DHT22;23342;52.620;13.300;2022-12-18T18:20:11;-2.50;99.90
37488;DHT22;23342;52.620;13.300;2022-12-18T18:22:39;-2.50;99.90
37488;DHT22;23342;52.620;13.300;2022-12-18T18:25:05;-2.50;99.90
37488;DHT22;23342;52.620;13.300;2022-12-18T18:27:31;-2.50;99.90
37488;DHT22;23342;52.620;13.300;2022-12-18T18:29:56;-2.50;99.90
37488;DHT22;23342;52.620;13.300;2022-12-18T18:32:22;-2.50;99.90
37488;DHT22;23342;52.620;13.300;2022-12-18T18:34:47;-2.50;99.90
37488;DHT22;23342;52.620;13.300;2022-12-18T18:37:12;-2.50;99.90
37488;DHT22;23342;52.620;13.300;2022-12-18T18:39:38;-2.60;99.90
37488;DHT22;23342;52.620;13.300;2022-12-18T18:42:04;-2.60;99.90
37488;DHT22;23342;52.620;13.300;2022-12-18T18:44:29;-2.60;99.90
37488;DHT22;23342;52.620;13.300;2022-12-18T18:46:56;-2.70;99.90
37488;DHT22;23342;52.620;13.300;2022-12-18T18:49:23;-2.60;99.90
37488;DHT22;23342;52.620;13.300;2022-12-18T18:51:51;-2.70;99.90
37488;DHT22;23342;52.620;13.300;2022-12-18T18:54:17;-2.70;99.90
37488;DHT22;23342;52.620;13.300;2022-12-18T18:56:42;-2.70;99.90
37488;DHT22;23342;52.620;13.300;2022-12-18T18:59:08;-2.70;99.90
37488;DHT22;23342;52.620;13.300;2022-12-18T19:01:33;-2.70;99.90
37488;DHT22;23342;52.620;13.300;2022-12-18T19:03:59;-2.70;99.90
37488;DHT22;23342;52.620;13.300;2022-12-18T19:06:28;-2.70;99.90
37488;DHT22;23342;52.620;13.300;2022-12-18T19:08:55;-2.70;99.90
37488;DHT22;23342;52.620;13.300;2022-12-18T19:11:21;-2.70;99.90
37488;DHT22;23342;52.620;13.300;2022-12-18T19:14:08;-2.80;99.90
37488;DHT22;23342;52.620;13.300;2022-12-18T19:16:35;-2.70;99.90
37488;DHT22;23342;52.620;13.300;2022-12-18T19:19:00;-2.70;99.90
37488;DHT22;23342;52.620;13.300;2022-12-18T19:21:26;-2.70;99.90
37488;DHT22;23342;52.620;13.300;2022-12-18T19:23:52;-2.80;99.90
37488;DHT22;23342;52.620;13.300;2022-12-18T19:26:19;-2.80;99.90
37488;DHT22;23342;52.620;13.300;2022-12-18T19:28:45;-2.70;99.90
37488;DHT22;23342;52.620;13.300;2022-12-18T19:31:12;-2.70;99.90
37488;DHT22;23342;52.620;13.300;2022-12-18T19:33:41;-2.80;99.90
37488;DHT22;23342;52.620;13.300;2022-12-18T19:36:21;-2.70;99.90
37488;DHT22;23342;52.620;13.300;2022-12-18T19:38:48;-2.80;99.90
37488;DHT22;23342;52.620;13.300;2022-12-18T19:41:15;-2.80;99.90
37488;DHT22;23342;52.620;13.300;2022-12-18T19:43:42;-2.80;99.90
37488;DHT22;23342;52.620;13.300;2022-12-18T19:46:10;-2.80;99.90
37488;DHT22;23342;52.620;13.300;2022-12-18T19:48:36;-2.80;99.90
37488;DHT22;23342;52.620;13.300;2022-12-18T19:51:12;-2.80;99.90
37488;DHT22;23342;52.620;13.300;2022-12-18T19:53:38;-2.70;99.90
37488;DHT22;23342;52.620;13.300;2022-12-18T19:56:08;-2.80;99.90
37488;DHT22;23342;52.620;13.300;2022-12-18T19:58:35;-2.80;99.90
37488;DHT22;23342;52.620;13.300;2022-12-18T20:01:00;-2.80;99.90
37488;DHT22;23342;52.620;13.300;2022-12-18T20:03:26;-2.80;99.90
37488;DHT22;23342;52.620;13.300;2022-12-18T20:05:51;-2.80;99.90
37488;DHT22;23342;52.620;13.300;2022-12-18T20:08:17;-2.80;99.90
37488;DHT22;23342;52.620;13.300;2022-12-18T20:10:43;-2.80;99.90
37488;DHT22;23342;52.620;13.300;2022-12-18T20:13:13;-2.80;99.90
37488;DHT22;23342;52.620;13.300;2022-12-18T20:15:39;-2.80;99.90
37488;DHT22;23342;52.620;13.300;2022-12-18T20:18:04;-2.80;99.90
37488;DHT22;23342;52.620;13.300;2022-12-18T20:20:30;-2.80;99.90
37488;DHT22;23342;52.620;13.300;2022-12-18T20:22:55;-2.80;99.90
37488;DHT22;23342;52.620;13.300;2022-12-18T20:25:21;-2.70;99.90
37488;DHT22;23342;52.620;13.300;2022-12-18T20:27:46;-2.70;99.90
37488;DHT22;23342;52.620;13.300;2022-12-18T20:30:12;-2.70;99.90
37488;DHT22;23342;52.620;13.300;2022-12-18T20:32:37;-2.70;99.90
37488;DHT22;23342;52.620;13.300;2022-12-18T20:35:03;-2.70;99.90
37488;DHT22;23342;52.620;13.300;2022-12-18T20:37:29;-2.60;99.90
37488;DHT22;23342;52.620;13.300;2022-12-18T20:39:54;-2.70;99.90
37488;DHT22;23342;52.620;13.300;2022-12-18T20:42:20;-2.70;99.90
37488;DHT22;23342;52.620;13.300;2022-12-18T20:44:46;-2.60;99.90
37488;DHT22;23342;52.620;13.300;2022-12-18T20:47:11;-2.70;99.90
37488;DHT22;23342;52.620;13.300;2022-12-18T20:49:37;-2.60;99.90
37488;DHT22;23342;52.620;13.300;2022-12-18T20:52:02;-2.60;99.90
37488;DHT22;23342;52.620;13.300;2022-12-18T20:54:28;-2.70;99.90
37488;DHT22;23342;52.620;13.300;2022-12-18T20:56:55;-2.70;99.90
37488;DHT22;23342;52.620;13.300;2022-12-18T20:59:20;-2.70;99.90
37488;DHT22;23342;52.620;13.300;2022-12-18T21:01:48;-2.70;99.90
37488;DHT22;23342;52.620;13.300;2022-12-18T21:04:14;-2.60;99.90
37488;DHT22;23342;52.620;13.300;2022-12-18T21:06:39;-2.70;99.90
37488;DHT22;23342;52.620;13.300;2022-12-18T21:09:05;-2.70;99.90
37488;DHT22;23342;52.620;13.300;2022-12-18T21:11:31;-2.70;99.90
37488;DHT22;23342;52.620;13.300;2022-12-18T21:14:19;-2.70;99.90
37488;DHT22;23342;52.620;13.300;2022-12-18T21:16:45;-2.70;99.90
37488;DHT22;23342;52.620;13.300;2022-12-18T21:19:14;-2.70;99.90
37488;DHT22;23342;52.620;13.300;2022-12-18T21:21:40;-2.70;99.90
37488;DHT22;23342;52.620;13.300;2022-12-18T21:24:07;-2.60;99.90
37488;DHT22;23342;52.620;13.300;2022-12-18T21:26:34;-2.60;99.90
37488;DHT22;23342;52.620;13.300;2022-12-18T21:29:02;-2.60;99.90
37488;DHT22;23342;52.620;13.300;2022-12-18T21:31:31;-2.60;99.90
37488;DHT22;23342;52.620;13.300;2022-12-18T21:33:57;-2.60;99.90
37488;DHT22;23342;52.620;13.300;2022-12-18T21:36:23;-2.70;99.90
37488;DHT22;23342;52.620;13.300;2022-12-18T21:38:48;-2.60;99.90
37488;DHT22;23342;52.620;13.300;2022-12-18T21:41:14;-2.60;99.90
37488;DHT22;23342;52.620;13.300;2022-12-18T21:43:58;-2.60;99.90
37488;DHT22;23342;52.620;13.300;2022-12-18T21:46:29;-2.60;99.90
37488;DHT22;23342;52.620;13.300;2022-12-18T21:48:55;-2.60;99.90
37488;DHT22;23342;52.620;13.300;2022-12-18T21:51:20;-2.60;99.90
37488;DHT22;23342;52.620;13.300;2022-12-18T21:53:46;-2.60;99.90
37488;DHT22;23342;52.620;13.300;2022-12-18T21:56:11;-2.60;99.90
37488;DHT22;23342;52.620;13.300;2022-12-18T21:58:37;-2.50;99.90
37488;DHT22;23342;52.620;13.300;2022-12-18T22:01:02;-2.60;99.90
37488;DHT22;23342;52.620;13.300;2022-12-18T22:03:27;-2.60;99.90
37488;DHT22;23342;52.620;13.300;2022-12-18T22:05:56;-2.60;99.90
37488;DHT22;23342;52.620;13.300;2022-12-18T22:08:23;-2.60;99.90
37488;DHT22;23342;52.620;13.300;2022-12-18T22:10:48;-2.60;99.90
37488;DHT22;23342;52.620;13.300;2022-12-18T22:13:15;-2.60;99.90
37488;DHT22;23342;52.620;13.300;2022-12-18T22:15:40;-2.60;99.90
37488;DHT22;23342;52.620;13.300;2022-12-18T22:18:06;-2.50;99.90
37488;DHT22;23342;52.620;13.300;2022-12-18T22:20:31;-2.50;99.90
37488;DHT22;23342;52.620;13.300;2022-12-18T22:22:57;-2.50;99.90
37488;DHT22;23342;52.620;13.300;2022-12-18T22:25:23;-2.50;99.90
37488;DHT22;23342;52.620;13.300;2022-12-18T22:27:48;-2.40;99.90
37488;DHT22;23342;52.620;13.300;2022-12-18T22:30:33;-2.50;99.90
37488;DHT22;23342;52.620;13.300;2022-12-18T22:32:58;-2.50;99.90
37488;DHT22;23342;52.620;13.300;2022-12-18T22:35:24;-2.50;99.90
37488;DHT22;23342;52.620;13.300;2022-12-18T22:37:50;-2.50;99.90
37488;DHT22;23342;52.620;13.300;2022-12-18T22:40:18;-2.50;99.90
37488;DHT22;23342;52.620;13.300;2022-12-18T22:42:44;-2.50;99.90
37488;DHT22;23342;52.620;13.300;2022-12-18T22:45:10;-2.40;99.90
37488;DHT22;23342;52.620;13.300;2022-12-18T22:47:35;-2.40;99.90
37488;DHT22;23342;52.620;13.300;2022-12-18T22:50:01;-2.40;99.90
37488;DHT22;23342;52.620;13.300;2022-12-18T22:52:26;-2.50;99.90
37488;DHT22;23342;52.620;13.300;2022-12-18T22:54:52;-2.50;99.90
37488;DHT22;23342;52.620;13.300;2022-12-18T22:57:18;-2.40;99.90
37488;DHT22;23342;52.620;13.300;2022-12-18T22:59:43;-2.40;99.90
37488;DHT22;23342;52.620;13.300;2022-12-18T23:02:09;-2.50;99.90
37488;DHT22;23342;52.620;13.300;2022-12-18T23:04:34;-2.50;99.90
37488;DHT22;23342;52.620;13.300;2022-12-18T23:07:01;-2.40;99.90
37488;DHT22;23342;52.620;13.300;2022-12-18T23:09:26;-2.40;99.90
37488;DHT22;23342;52.620;13.300;2022-12-18T23:11:53;-2.40;99.90
37488;DHT22;23342;52.620;13.300;2022-12-18T23:14:18;-2.40;99.90
37488;DHT22;23342;52.620;13.300;2022-12-18T23:16:44;-2.40;99.90
37488;DHT22;23342;52.620;13.300;2022-12-18T23:19:10;-2.40;99.90
37488;DHT22;23342;52.620;13.300;2022-12-18T23:21:36;-2.40;99.90
37488;DHT22;23342;52.620;13.300;2022-12-18T23:24:02;-2.40;99.90
37488;DHT22;23342;52.620;13.300;2022-12-18T23:26:28;-2.30;99.90
37488;DHT22;23342;52.620;13.300;2022-12-18T23:28:53;-2.30;99.90
37488;DHT22;23342;52.620;13.300;2022-12-18T23:31:29;-2.40;99.90
37488;DHT22;23342;52.620;13.300;2022-12-18T23:33:57;-2.40;99.90
37488;DHT22;23342;52.620;13.300;2022-12-18T23:36:23;-2.50;99.90
37488;DHT22;23342;52.620;13.300;2022-12-18T23:38:55;-2.40;99.90
37488;DHT22;23342;52.620;13.300;2022-12-18T23:41:22;-2.40;99.90
37488;DHT22;23342;52.620;13.300;2022-12-18T23:43:49;-2.50;99.90
37488;DHT22;23342;52.620;13.300;2022-12-18T23:46:24;-2.40;99.90
37488;DHT22;23342;52.620;13.300;2022-12-18T23:48:51;-2.50;99.90
37488;DHT22;23342;52.620;13.300;2022-12-18T23:51:18;-2.40;99.90
37488;DHT22;23342;52.620;13.300;2022-12-18T23:53:44;-2.30;99.90
37488;DHT22;23342;52.620;13.300;2022-12-18T23:56:11;-2.40;99.90
37488;DHT22;23342;52.620;13.300;2022-12-18T23:58:37;-2.40;99.90
